createdAt,value
2022-12-08T00:02:22.048Z,97859.09
2022-12-08T00:05:08.312Z,97862.41
2022-12-08T00:07:56.714Z,97858.97
2022-12-08T00:10:48.569Z,97862.38
2022-12-08T00:13:14.478Z,97862.41
2022-12-08T00:15:43.020Z,97858.97
2022-12-08T00:18:13.301Z,97857.22
2022-12-08T00:20:41.958Z,97854.66
2022-12-08T00:23:10.584Z,97852.06
2022-12-08T00:25:39.249Z,97848.66
2022-12-08T00:28:07.973Z,97846.97
2022-12-08T00:30:36.541Z,97841.91
2022-12-08T00:33:05.238Z,97841.00
2022-12-08T00:35:40.093Z,97832.53
2022-12-08T00:38:11.565Z,97836.09
2022-12-08T00:40:44.479Z,97834.38
2022-12-08T00:43:13.198Z,97836.81
2022-12-08T00:45:42.142Z,97829.06
2022-12-08T00:48:10.975Z,97833.25
2022-12-08T00:50:40.903Z,97833.31
2022-12-08T00:53:09.809Z,97832.53
2022-12-08T00:55:38.418Z,97824.78
2022-12-08T00:58:06.968Z,97824.84
2022-12-08T01:00:35.567Z,97831.72
2022-12-08T01:03:04.170Z,97824.25
2022-12-08T01:05:32.766Z,97832.91
2022-12-08T01:08:03.023Z,97821.13
2022-12-08T01:10:31.708Z,97825.41
2022-12-08T01:13:00.393Z,97819.59
2022-12-08T01:15:29.022Z,97822.25
2022-12-08T01:17:57.669Z,97828.22
2022-12-08T01:20:26.639Z,97830.84
2022-12-08T01:22:55.261Z,97832.59
2022-12-08T01:25:25.505Z,97827.50
2022-12-08T01:27:54.569Z,97837.69
2022-12-08T01:30:23.239Z,97837.81
2022-12-08T01:32:51.959Z,97845.31
2022-12-08T01:35:20.594Z,97836.91
2022-12-08T01:37:49.279Z,97840.38
2022-12-08T01:40:18.501Z,97833.72
2022-12-08T01:42:48.564Z,97839.63
2022-12-08T01:45:22.854Z,97819.41
2022-12-08T01:47:54.387Z,97825.41
2022-12-08T01:50:23.842Z,97824.66
2022-12-08T01:52:55.929Z,97823.75
2022-12-08T01:55:27.259Z,97817.97
2022-12-08T01:57:59.878Z,97822.19
2022-12-08T02:00:28.498Z,97820.50
2022-12-08T02:03:00.663Z,97817.19
2022-12-08T02:05:31.293Z,97811.34
2022-12-08T02:08:01.685Z,97808.00
2022-12-08T02:10:31.929Z,97808.94
2022-12-08T02:13:02.893Z,97801.34
2022-12-08T02:15:38.086Z,97800.56
2022-12-08T02:18:20.934Z,97801.59
2022-12-08T02:20:57.433Z,97792.47
2022-12-08T02:23:33.156Z,97789.16
2022-12-08T02:26:44.846Z,97789.22
2022-12-08T02:29:50.633Z,97791.81
2022-12-08T02:32:42.253Z,97788.53
2022-12-08T02:35:14.062Z,97776.84
2022-12-08T02:37:45.434Z,97783.63
2022-12-08T02:40:18.603Z,97774.31
2022-12-08T02:42:50.867Z,97776.00
2022-12-08T02:45:25.580Z,97778.53
2022-12-08T02:47:54.326Z,97772.69
2022-12-08T02:50:24.506Z,97778.59
2022-12-08T02:52:53.081Z,97777.78
2022-12-08T02:55:27.835Z,97775.22
2022-12-08T02:58:31.955Z,97770.97
2022-12-08T03:01:16.018Z,97771.03
2022-12-08T03:03:50.626Z,97764.28
2022-12-08T03:06:29.131Z,97764.28
2022-12-08T03:09:01.394Z,97769.31
2022-12-08T03:11:34.583Z,97764.28
2022-12-08T03:14:05.042Z,97772.72
2022-12-08T03:16:36.721Z,97765.13
2022-12-08T03:19:09.921Z,97755.06
2022-12-08T03:21:42.290Z,97750.81
2022-12-08T03:24:11.615Z,97758.53
2022-12-08T03:26:43.334Z,97752.69
2022-12-08T03:29:12.243Z,97739.16
2022-12-08T03:31:44.686Z,97743.44
2022-12-08T03:34:14.680Z,97740.97
2022-12-08T03:36:45.690Z,97741.84
2022-12-08T03:39:14.703Z,97737.75
2022-12-08T03:41:43.307Z,97745.44
2022-12-08T03:44:12.124Z,97742.97
2022-12-08T03:46:40.793Z,97743.03
2022-12-08T03:49:09.423Z,97741.31
2022-12-08T03:51:38.218Z,97738.81
2022-12-08T03:54:08.370Z,97730.44
2022-12-08T03:59:08.638Z,97732.22
2022-12-08T04:01:37.435Z,97712.81
2022-12-08T04:04:06.504Z,97719.69
2022-12-08T04:06:35.237Z,97708.75
2022-12-08T04:09:03.852Z,97712.13
2022-12-08T04:11:33.931Z,97710.50
2022-12-08T04:14:02.575Z,97720.72
2022-12-08T04:16:31.508Z,97710.56
2022-12-08T04:19:00.349Z,97713.97
2022-12-08T04:21:29.243Z,97710.66
2022-12-08T04:24:01.228Z,97712.31
2022-12-08T04:26:30.263Z,97702.25
2022-12-08T04:29:00.441Z,97709.88
2022-12-08T04:31:29.181Z,97704.03
2022-12-08T04:33:57.968Z,97708.31
2022-12-08T04:36:26.765Z,97714.28
2022-12-08T04:38:55.445Z,97721.91
2022-12-08T04:41:24.101Z,97710.19
2022-12-08T04:43:52.710Z,97710.09
2022-12-08T04:46:22.878Z,97709.28
2022-12-08T04:48:51.517Z,97707.56
2022-12-08T04:51:21.189Z,97692.34
2022-12-08T04:53:49.787Z,97697.41
2022-12-08T04:56:20.770Z,97696.72
2022-12-08T04:58:49.576Z,97693.44
2022-12-08T05:01:18.217Z,97694.38
2022-12-08T05:03:48.344Z,97695.19
2022-12-08T05:06:16.972Z,97685.16
2022-12-08T05:08:45.873Z,97680.91
2022-12-08T05:11:15.134Z,97675.88
2022-12-08T05:13:43.879Z,97682.63
2022-12-08T05:16:14.520Z,97681.75
2022-12-08T05:18:44.248Z,97675.06
2022-12-08T05:21:14.249Z,97681.84
2022-12-08T05:23:42.989Z,97679.34
2022-12-08T05:26:11.629Z,97670.91
2022-12-08T05:28:42.274Z,97674.34
2022-12-08T05:31:11.729Z,97674.34
2022-12-08T05:33:40.527Z,97679.50
2022-12-08T05:36:09.966Z,97676.97
2022-12-08T05:38:40.011Z,97674.44
2022-12-08T05:41:08.826Z,97679.44
2022-12-08T05:43:37.664Z,97685.31
2022-12-08T05:46:07.227Z,97686.19
2022-12-08T05:48:36.008Z,97686.22
2022-12-08T05:51:05.535Z,97679.50
2022-12-08T05:53:34.438Z,97682.03
2022-12-08T05:56:04.633Z,97674.47
2022-12-08T05:58:33.288Z,97684.63
2022-12-08T06:01:02.217Z,97678.63
2022-12-08T06:03:31.278Z,97670.25
2022-12-08T06:06:00.078Z,97677.84
2022-12-08T06:08:28.730Z,97672.78
2022-12-08T06:10:57.633Z,97674.47
2022-12-08T06:13:27.698Z,97672.03
2022-12-08T06:15:56.289Z,97672.06
2022-12-08T06:18:29.683Z,97661.09
2022-12-08T06:21:05.565Z,97671.31
2022-12-08T06:23:35.242Z,97664.59
2022-12-08T06:26:05.448Z,97673.03
2022-12-08T06:28:38.976Z,97671.38
2022-12-08T06:31:12.536Z,97668.03
2022-12-08T06:33:42.127Z,97675.63
2022-12-08T06:36:14.661Z,97680.69
2022-12-08T06:38:44.214Z,97669.75
2022-12-08T06:41:14.946Z,97673.19
2022-12-08T06:43:46.215Z,97680.81
2022-12-08T06:46:18.874Z,97685.09
2022-12-08T06:48:50.711Z,97686.75
2022-12-08T06:51:22.948Z,97683.44
2022-12-08T06:53:51.646Z,97689.44
2022-12-08T06:56:22.465Z,97682.78
2022-12-08T06:58:53.240Z,97688.69
2022-12-08T07:01:22.164Z,97683.66
2022-12-08T07:03:50.995Z,97682.78
2022-12-08T07:06:22.060Z,97686.16
2022-12-08T07:08:51.110Z,97686.13
2022-12-08T07:11:22.168Z,97687.81
2022-12-08T07:13:52.759Z,97688.72
2022-12-08T07:16:21.567Z,97687.81
2022-12-08T07:18:50.343Z,97686.13
2022-12-08T07:21:19.606Z,97694.66
2022-12-08T07:23:55.775Z,97697.97
2022-12-08T07:26:26.953Z,97692.16
2022-12-08T07:28:57.111Z,97687.91
2022-12-08T07:31:28.536Z,97687.00
2022-12-08T07:33:58.036Z,97686.13
2022-12-08T07:36:26.968Z,97687.81
2022-12-08T07:38:56.822Z,97688.66
2022-12-08T07:41:26.815Z,97686.91
2022-12-08T07:43:58.124Z,97691.97
2022-12-08T07:46:27.492Z,97690.28
2022-12-08T07:48:57.074Z,97691.91
2022-12-08T07:51:25.904Z,97693.56
2022-12-08T07:53:55.439Z,97692.69
2022-12-08T07:56:24.959Z,97691.78
2022-12-08T07:58:53.762Z,97683.34
2022-12-08T08:01:26.000Z,97677.50
2022-12-08T08:03:55.473Z,97682.56
2022-12-08T08:06:24.382Z,97681.78
2022-12-08T08:08:53.163Z,97683.47
2022-12-08T08:11:22.081Z,97675.91
2022-12-08T08:13:50.910Z,97681.72
2022-12-08T08:16:20.233Z,97675.84
2022-12-08T08:18:51.289Z,97671.66
2022-12-08T08:24:09.814Z,97674.97
2022-12-08T08:26:38.654Z,97670.78
2022-12-08T08:29:07.510Z,97669.91
2022-12-08T08:31:36.539Z,97676.63
2022-12-08T08:34:06.815Z,97674.84
2022-12-08T08:36:35.543Z,97678.16
2022-12-08T08:39:04.719Z,97673.97
2022-12-08T08:41:33.415Z,97662.97
2022-12-08T08:44:02.232Z,97668.78
2022-12-08T08:46:31.079Z,97666.31
2022-12-08T08:49:00.034Z,97672.94
2022-12-08T08:51:30.162Z,97675.41
2022-12-08T08:53:59.301Z,97660.97
2022-12-08T08:56:28.021Z,97671.06
2022-12-08T08:58:57.040Z,97668.50
2022-12-08T09:01:27.416Z,97669.38
2022-12-08T09:03:56.684Z,97665.97
2022-12-08T09:06:25.957Z,97654.22
2022-12-08T09:08:56.162Z,97669.38
2022-12-08T09:11:25.131Z,97660.91
2022-12-08T09:13:54.449Z,97657.53
2022-12-08T09:16:24.098Z,97660.72
2022-12-08T09:18:52.995Z,97660.72
2022-12-08T09:21:23.683Z,97659.84
2022-12-08T09:23:53.533Z,97649.53
2022-12-08T09:26:24.080Z,97650.28
2022-12-08T09:28:53.464Z,97649.41
2022-12-08T09:31:23.214Z,97647.66
2022-12-08T09:33:52.739Z,97645.78
2022-12-08T09:36:21.819Z,97649.06
2022-12-08T09:38:51.634Z,97654.03
2022-12-08T09:41:37.527Z,97648.03
2022-12-08T09:44:22.576Z,97649.78
2022-12-08T09:46:54.240Z,97642.97
2022-12-08T09:49:24.992Z,97647.13
2022-12-08T09:51:53.820Z,97646.09
2022-12-08T09:54:24.146Z,97629.97
2022-12-08T09:56:56.221Z,97634.03
2022-12-08T09:59:26.977Z,97623.88
2022-12-08T10:01:56.725Z,97635.63
2022-12-08T10:04:27.244Z,97627.78
2022-12-08T10:07:04.629Z,97621.00
2022-12-08T10:09:39.889Z,97623.44
2022-12-08T10:12:16.915Z,97617.59
2022-12-08T10:14:49.168Z,97619.84
2022-12-08T10:17:24.244Z,97609.75
2022-12-08T10:19:57.024Z,97607.97
2022-12-08T10:22:27.292Z,97597.72
2022-12-08T10:25:00.795Z,97600.91
2022-12-08T10:27:31.151Z,97596.53
2022-12-08T10:29:59.931Z,97601.44
2022-12-08T10:32:34.987Z,97598.69
2022-12-08T10:35:05.165Z,97599.38
2022-12-08T10:37:34.057Z,97597.47
2022-12-08T10:40:06.224Z,97595.72
2022-12-08T10:42:38.726Z,97592.91
2022-12-08T10:45:24.308Z,97590.94
2022-12-08T10:48:00.252Z,97593.97
2022-12-08T10:50:36.609Z,97586.91
2022-12-08T10:53:16.141Z,97582.38
2022-12-08T10:55:46.532Z,97567.81
2022-12-08T10:58:36.572Z,97575.25
2022-12-08T11:01:11.009Z,97566.66
2022-12-08T11:03:44.851Z,97562.44
2022-12-08T11:06:16.685Z,97559.75
2022-12-08T11:08:48.920Z,97552.38
2022-12-08T11:11:17.865Z,97539.38
2022-12-08T11:13:51.346Z,97539.28
2022-12-08T11:16:21.222Z,97532.44
2022-12-08T11:18:57.774Z,97536.59
2022-12-08T11:21:36.459Z,97526.56
2022-12-08T11:24:23.051Z,97525.88
2022-12-08T11:26:54.576Z,97530.13
2022-12-08T11:29:24.748Z,97520.69
2022-12-08T11:31:55.818Z,97519.06
2022-12-08T11:34:33.304Z,97506.16
2022-12-08T11:37:02.323Z,97505.44
2022-12-08T11:39:35.365Z,97505.22
2022-12-08T11:42:05.318Z,97505.06
2022-12-08T11:44:39.078Z,97504.25
2022-12-08T11:47:13.314Z,97502.50
2022-12-08T11:49:43.093Z,97497.25
2022-12-08T11:52:19.186Z,97492.72
2022-12-08T11:54:51.538Z,97491.13
2022-12-08T11:57:22.583Z,97489.97
2022-12-08T11:59:53.429Z,97499.09
2022-12-08T12:02:23.296Z,97487.00
2022-12-08T12:04:55.431Z,97493.06
2022-12-08T12:07:45.406Z,97488.59
2022-12-08T12:10:31.836Z,97485.38
2022-12-08T12:13:09.729Z,97497.94
2022-12-08T12:16:14.279Z,97488.59
2022-12-08T12:18:46.359Z,97487.56
2022-12-08T12:21:19.291Z,97480.66
2022-12-08T12:23:50.787Z,97470.47
2022-12-08T12:26:21.441Z,97473.03
2022-12-08T12:28:53.042Z,97476.34
2022-12-08T12:31:26.757Z,97474.59
2022-12-08T12:33:58.754Z,97468.66
2022-12-08T12:36:27.548Z,97469.44
2022-12-08T12:39:04.030Z,97465.22
2022-12-08T12:41:36.878Z,97465.13
2022-12-08T12:44:13.645Z,97458.31
2022-12-08T12:46:56.003Z,97457.50
2022-12-08T12:49:53.234Z,97452.31
2022-12-08T12:52:41.544Z,97456.50
2022-12-08T12:55:58.421Z,97442.03
2022-12-08T12:58:38.643Z,97438.31
2022-12-08T13:01:56.467Z,97437.66
2022-12-08T13:04:34.679Z,97440.16
2022-12-08T13:07:03.785Z,97440.16
2022-12-08T13:09:35.105Z,97437.59
2022-12-08T13:12:11.179Z,97433.19
2022-12-08T13:14:46.422Z,97435.84
2022-12-08T13:17:17.763Z,97434.97
2022-12-08T13:19:52.065Z,97439.22
2022-12-08T13:22:54.651Z,97440.94
2022-12-08T13:25:49.180Z,97440.06
2022-12-08T13:28:27.195Z,97426.53
2022-12-08T13:30:57.871Z,97434.06
2022-12-08T13:33:29.547Z,97442.59
2022-12-08T13:36:22.713Z,97430.53
2022-12-08T13:38:55.793Z,97425.50
2022-12-08T13:41:35.982Z,97431.22
2022-12-08T13:45:03.595Z,97431.31
2022-12-08T13:58:33.228Z,97423.88
2022-12-08T14:01:06.520Z,97420.47
2022-12-08T14:03:45.122Z,97418.75
2022-12-08T14:06:29.938Z,97423.84
2022-12-08T14:09:08.726Z,97426.31
2022-12-08T14:11:41.288Z,97419.56
2022-12-08T14:14:27.241Z,97426.31
2022-12-08T14:17:04.884Z,97428.59
2022-12-08T14:19:35.098Z,97432.88
2022-12-08T14:22:11.025Z,97430.38
2022-12-08T14:24:41.844Z,97436.31
2022-12-08T14:27:13.635Z,97428.78
2022-12-08T14:29:44.553Z,97422.13
2022-12-08T14:32:30.396Z,97428.94
2022-12-08T14:35:02.601Z,97430.59
2022-12-08T14:37:34.415Z,97431.41
2022-12-08T14:40:07.073Z,97433.31
2022-12-08T14:42:45.143Z,97427.38
2022-12-08T14:45:16.106Z,97426.66
2022-12-08T14:47:45.617Z,97435.16
2022-12-08T14:50:40.610Z,97431.75
2022-12-08T14:53:15.082Z,97426.84
2022-12-08T14:55:46.394Z,97431.19
2022-12-08T14:58:22.003Z,97430.28
2022-12-08T15:00:52.271Z,97426.78
2022-12-08T15:03:23.655Z,97433.50
2022-12-08T15:05:53.604Z,97427.47
2022-12-08T15:08:22.266Z,97430.91
2022-12-08T15:11:28.681Z,97427.50
2022-12-08T15:13:57.634Z,97424.09
2022-12-08T15:16:28.744Z,97423.97
2022-12-08T15:19:09.687Z,97426.66
2022-12-08T15:21:40.696Z,97419.88
2022-12-08T15:24:12.715Z,97420.72
2022-12-08T15:26:46.487Z,97429.22
2022-12-08T15:29:21.182Z,97424.19
2022-12-08T15:31:50.226Z,97420.81
2022-12-08T15:34:19.165Z,97422.47
2022-12-08T15:36:48.153Z,97415.72
2022-12-08T15:39:26.784Z,97414.00
2022-12-08T15:41:56.723Z,97420.00
2022-12-08T15:44:25.494Z,97414.03
2022-12-08T15:46:54.908Z,97414.09
2022-12-08T15:49:25.026Z,97415.91
2022-12-08T15:52:03.472Z,97420.19
2022-12-08T15:54:39.362Z,97415.91
2022-12-08T15:57:20.428Z,97421.97
2022-12-08T15:59:54.582Z,97414.38
2022-12-08T16:02:25.281Z,97415.28
2022-12-08T16:05:40.149Z,97413.59
2022-12-08T16:07:43.107Z,97406.81
2022-12-08T16:10:17.947Z,97406.06
2022-12-08T16:13:56.139Z,97407.72
2022-12-08T16:16:00.697Z,97405.25
2022-12-08T16:18:32.503Z,97398.25
2022-12-08T16:21:41.722Z,97398.19
2022-12-08T16:23:51.035Z,97399.16
2022-12-08T16:27:06.911Z,97395.06
2022-12-08T16:29:17.703Z,97394.16
2022-12-08T16:31:46.616Z,97390.69
2022-12-08T16:34:15.537Z,97392.28
2022-12-08T16:36:44.200Z,97387.44
2022-12-08T16:39:14.875Z,97387.34
2022-12-08T16:42:01.096Z,97385.06
2022-12-08T16:44:31.348Z,97383.31
2022-12-08T16:46:59.978Z,97383.44
2022-12-08T16:49:28.561Z,97384.38
2022-12-08T16:51:57.101Z,97378.41
2022-12-08T16:54:25.744Z,97375.22
2022-12-08T16:56:54.346Z,97381.13
2022-12-08T16:59:23.115Z,97384.59
2022-12-08T17:01:53.119Z,97385.63
2022-12-08T17:04:37.208Z,97387.34
2022-12-08T17:07:06.063Z,97388.09
2022-12-08T17:09:34.722Z,97392.31
2022-12-08T17:12:04.516Z,97383.09
2022-12-08T17:14:35.320Z,97384.00
2022-12-08T17:17:06.288Z,97388.19
2022-12-08T17:19:35.676Z,97386.56
2022-12-08T17:22:04.614Z,97389.19
2022-12-08T17:24:33.934Z,97385.88
2022-12-08T17:27:04.541Z,97387.53
2022-12-08T17:29:34.223Z,97390.97
2022-12-08T17:32:04.621Z,97390.19
2022-12-08T17:34:33.349Z,97389.41
2022-12-08T17:37:02.062Z,97394.38
2022-12-08T17:39:30.707Z,97399.59
2022-12-08T17:41:59.400Z,97403.75
2022-12-08T17:44:28.818Z,97398.66
2022-12-08T17:46:57.567Z,97397.06
2022-12-08T17:49:29.598Z,97397.09
2022-12-08T17:51:59.916Z,97393.72
2022-12-08T17:54:29.188Z,97384.47
2022-12-08T17:56:58.836Z,97383.59
2022-12-08T17:59:28.178Z,97385.19
2022-12-08T18:01:57.948Z,97394.50
2022-12-08T18:04:28.746Z,97403.00
2022-12-08T18:06:59.383Z,97394.59
2022-12-08T18:09:28.082Z,97400.59
2022-12-08T18:11:56.742Z,97402.25
2022-12-08T18:14:25.847Z,97402.31
2022-12-08T18:16:54.703Z,97405.72
2022-12-08T18:19:23.601Z,97405.69
2022-12-08T18:21:54.596Z,97409.78
2022-12-08T18:24:25.058Z,97401.16
2022-12-08T18:26:55.109Z,97400.13
2022-12-08T18:29:24.312Z,97398.38
2022-12-08T18:31:53.614Z,97394.19
2022-12-08T18:34:22.314Z,97392.56
2022-12-08T18:36:51.052Z,97390.03
2022-12-08T18:39:24.981Z,97384.09
2022-12-08T18:41:54.665Z,97390.03
2022-12-08T18:44:23.557Z,97384.09
2022-12-08T18:46:52.467Z,97384.81
2022-12-08T18:49:21.451Z,97376.44
2022-12-08T18:51:50.054Z,97382.44
2022-12-08T18:54:22.017Z,97375.72
2022-12-08T18:56:54.665Z,97385.97
2022-12-08T18:59:23.810Z,97393.72
2022-12-08T19:01:52.610Z,97386.16
2022-12-08T19:04:29.194Z,97380.31
2022-12-08T19:06:58.835Z,97382.88
2022-12-08T19:09:28.986Z,97369.41
2022-12-08T19:11:59.476Z,97368.59
2022-12-08T19:14:30.259Z,97372.97
2022-12-08T19:16:59.105Z,97373.91
2022-12-08T19:19:28.054Z,97370.53
2022-12-08T19:21:56.796Z,97366.31
2022-12-08T19:24:25.818Z,97368.91
2022-12-08T19:26:54.553Z,97366.44
2022-12-08T19:29:24.545Z,97365.63
2022-12-08T19:31:53.417Z,97360.53
2022-12-08T19:34:22.099Z,97359.88
2022-12-08T19:36:50.976Z,97355.69
2022-12-08T19:39:38.691Z,97361.69
2022-12-08T19:42:31.807Z,97354.97
2022-12-08T19:45:06.799Z,97355.03
2022-12-08T19:47:35.329Z,97358.50
2022-12-08T19:50:21.410Z,97359.31
2022-12-08T19:52:50.056Z,97353.50
2022-12-08T19:55:19.048Z,97358.72
2022-12-08T19:57:47.729Z,97352.88
2022-12-08T20:00:19.241Z,97352.06
2022-12-08T20:02:48.436Z,97348.72
2022-12-08T20:05:17.964Z,97353.97
2022-12-08T20:07:46.957Z,97342.97
2022-12-08T20:10:17.861Z,97346.41
2022-12-08T20:12:46.551Z,97339.69
2022-12-08T20:15:17.140Z,97340.72
2022-12-08T20:17:45.858Z,97350.09
2022-12-08T20:20:15.370Z,97351.06
2022-12-08T20:22:45.296Z,97352.78
2022-12-08T20:25:14.303Z,97356.22
2022-12-08T20:27:43.524Z,97351.19
2022-12-08T20:30:17.052Z,97349.59
2022-12-08T20:32:47.688Z,97349.66
2022-12-08T20:35:16.606Z,97359.00
2022-12-08T20:37:45.963Z,97354.81
2022-12-08T20:40:15.006Z,97353.25
2022-12-08T20:42:44.024Z,97355.03
2022-12-08T20:45:13.082Z,97352.50
2022-12-08T20:47:41.820Z,97352.63
2022-12-08T20:50:12.844Z,97353.47
2022-12-08T20:52:41.816Z,97356.09
2022-12-08T20:55:11.585Z,97351.03
2022-12-08T20:57:40.228Z,97348.53
2022-12-08T21:00:10.575Z,97353.69
2022-12-08T21:02:45.107Z,97356.25
2022-12-08T21:05:18.444Z,97347.94
2022-12-08T21:07:48.024Z,97348.81
2022-12-08T21:10:17.373Z,97347.25
2022-12-08T21:12:46.350Z,97354.91
2022-12-08T21:15:15.215Z,97352.41
2022-12-08T21:17:44.134Z,97351.72
2022-12-08T21:20:13.061Z,97345.84
2022-12-08T21:22:43.230Z,97348.44
2022-12-08T21:25:12.277Z,97349.34
2022-12-08T21:27:41.289Z,97351.09
2022-12-08T21:30:11.630Z,97347.84
2022-12-08T21:32:41.260Z,97352.94
2022-12-08T21:35:10.855Z,97345.38
2022-12-08T21:37:39.702Z,97338.72
2022-12-08T21:40:12.856Z,97337.06
2022-12-08T21:42:45.017Z,97339.69
2022-12-08T21:45:16.230Z,97344.84
2022-12-08T21:47:45.830Z,97344.00
2022-12-08T21:50:15.498Z,97348.34
2022-12-08T21:52:46.436Z,97342.50
2022-12-08T21:55:19.115Z,97346.00
2022-12-08T21:57:48.499Z,97348.63
2022-12-08T22:00:19.282Z,97347.13
2022-12-08T22:02:48.847Z,97346.28
2022-12-08T22:05:18.345Z,97344.66
2022-12-08T22:07:47.580Z,97341.47
2022-12-08T22:10:17.766Z,97345.72
2022-12-08T22:12:46.699Z,97343.41
2022-12-08T22:15:15.557Z,97343.41
2022-12-08T22:17:45.640Z,97353.53
2022-12-08T22:20:16.540Z,97356.91
2022-12-08T22:22:45.572Z,97347.63
2022-12-08T22:25:14.565Z,97349.38
2022-12-08T22:27:44.491Z,97346.94
2022-12-08T22:30:13.584Z,97350.25
2022-12-08T22:32:42.712Z,97351.13
2022-12-08T22:35:12.113Z,97347.84
2022-12-08T22:37:40.837Z,97341.19
2022-12-08T22:40:11.186Z,97347.09
2022-12-08T22:42:40.275Z,97341.25
2022-12-08T22:45:11.596Z,97341.22
2022-12-08T22:47:40.284Z,97341.25
2022-12-08T22:50:09.590Z,97339.66
2022-12-08T22:52:38.841Z,97336.34
2022-12-08T22:55:08.644Z,97334.78
2022-12-08T22:57:37.369Z,97331.50
2022-12-08T23:00:07.565Z,97326.50
2022-12-08T23:02:38.793Z,97325.66
2022-12-08T23:05:08.158Z,97335.03
2022-12-08T23:07:37.098Z,97325.00
2022-12-08T23:10:07.712Z,97327.56
2022-12-08T23:12:37.166Z,97318.41
2022-12-08T23:15:07.171Z,97312.50
2022-12-08T23:17:37.365Z,97318.47
2022-12-08T23:20:07.431Z,97317.69
2022-12-08T23:22:36.525Z,97314.41
2022-12-08T23:25:06.171Z,97308.56
2022-12-08T23:27:35.166Z,97307.72
2022-12-08T23:30:04.501Z,97307.78
2022-12-08T23:32:33.686Z,97310.38
2022-12-08T23:35:03.995Z,97301.16
2022-12-08T23:37:33.030Z,97296.94
2022-12-08T23:40:01.879Z,97293.63
2022-12-08T23:42:31.125Z,97296.28
2022-12-08T23:44:59.864Z,97294.59
2022-12-08T23:47:28.937Z,97287.03
2022-12-08T23:49:57.860Z,97288.81
2022-12-08T23:52:28.024Z,97279.53
2022-12-08T23:54:57.126Z,97277.88
2022-12-08T23:57:25.923Z,97267.84
2022-12-08T23:59:54.571Z,97275.47
